createdAt,value
2019-02-14T00:02:17.461Z,18.07
2019-02-14T00:04:47.564Z,16.20
2019-02-14T00:07:17.665Z,24.12
2019-02-14T00:09:49.865Z,21.97
2019-02-14T00:12:19.969Z,18.90
2019-02-14T00:14:51.073Z,30.77
2019-02-14T00:17:21.182Z,21.37
2019-02-14T00:19:53.940Z,22.05
2019-02-14T00:22:25.033Z,19.45
2019-02-14T00:24:55.156Z,17.87
2019-02-14T00:27:25.264Z,17.17
2019-02-14T00:29:55.365Z,31.25
2019-02-14T00:32:25.476Z,18.12
2019-02-14T00:34:55.574Z,17.65
2019-02-14T00:37:25.712Z,19.37
2019-02-14T00:39:55.813Z,10.23
2019-02-14T00:42:26.870Z,13.78
2019-02-14T00:44:56.993Z,21.52
2019-02-14T00:47:27.107Z,14.63
2019-02-14T00:49:57.225Z,18.87
2019-02-14T00:52:29.295Z,18.40
2019-02-14T00:54:59.424Z,16.65
2019-02-14T00:57:29.537Z,14.38
2019-02-14T00:59:59.674Z,16.73
2019-02-14T01:02:29.901Z,14.30
2019-02-14T01:05:00.014Z,16.20
2019-02-14T01:07:30.101Z,18.02
2019-02-14T01:10:00.325Z,16.45
2019-02-14T01:12:30.388Z,16.05
2019-02-14T01:15:00.485Z,15.55
2019-02-14T01:17:30.577Z,17.10
2019-02-14T01:20:00.669Z,23.65
2019-02-14T01:22:30.761Z,12.90
2019-02-14T01:25:00.873Z,18.90
2019-02-14T01:27:31.017Z,20.12
2019-02-14T01:30:02.197Z,15.15
2019-02-14T01:32:32.326Z,15.15
2019-02-14T01:35:02.449Z,27.27
2019-02-14T01:37:32.561Z,15.35
2019-02-14T01:40:02.678Z,16.55
2019-02-14T01:42:32.791Z,20.85
2019-02-14T01:45:05.277Z,15.10
2019-02-14T01:47:36.320Z,18.12
2019-02-14T01:50:10.496Z,29.25
2019-02-14T01:52:41.588Z,21.33
2019-02-14T01:55:11.834Z,14.70
2019-02-14T01:57:42.850Z,16.80
2019-02-14T02:00:15.825Z,22.77
2019-02-14T02:02:45.924Z,18.30
2019-02-14T02:05:16.024Z,20.95
2019-02-14T02:07:50.182Z,19.92
2019-02-14T02:10:20.313Z,18.85
2019-02-14T02:12:50.401Z,18.75
2019-02-14T02:15:20.501Z,16.55
2019-02-14T02:17:50.617Z,16.85
2019-02-14T02:20:40.061Z,22.02
2019-02-14T02:23:10.174Z,18.85
2019-02-14T02:25:40.265Z,14.43
2019-02-14T02:28:10.369Z,12.78
2019-02-14T02:30:40.484Z,14.20
2019-02-14T02:33:10.598Z,17.07
2019-02-14T02:35:45.676Z,16.42
2019-02-14T02:38:15.777Z,24.52
2019-02-14T02:40:45.885Z,17.67
2019-02-14T02:43:17.946Z,18.20
2019-02-14T02:45:48.969Z,18.48
2019-02-14T02:48:25.025Z,24.65
2019-02-14T02:50:55.128Z,17.77
2019-02-14T02:53:32.986Z,16.45
2019-02-14T02:56:04.056Z,19.02
2019-02-14T02:58:35.133Z,20.00
2019-02-14T03:01:05.245Z,24.10
2019-02-14T03:03:38.039Z,22.77
2019-02-14T03:06:10.647Z,21.70
2019-02-14T03:08:41.884Z,18.55
2019-02-14T03:11:12.897Z,18.37
2019-02-14T03:13:48.754Z,29.23
2019-02-14T03:16:18.849Z,16.50
2019-02-14T03:18:50.932Z,17.73
2019-02-14T03:21:21.861Z,18.00
2019-02-14T03:23:52.221Z,20.48
2019-02-14T03:26:22.429Z,15.63
2019-02-14T03:28:52.541Z,19.77
2019-02-14T03:31:29.428Z,22.65
2019-02-14T03:33:59.533Z,21.42
2019-02-14T03:36:29.650Z,17.32
2019-02-14T03:39:04.725Z,19.92
2019-02-14T03:41:35.821Z,18.80
2019-02-14T03:44:11.901Z,17.27
2019-02-14T03:46:42.002Z,19.17
2019-02-14T03:49:13.073Z,19.07
2019-02-14T03:51:43.213Z,20.50
2019-02-14T03:54:13.338Z,23.25
2019-02-14T03:56:43.417Z,19.15
2019-02-14T03:59:13.533Z,25.02
2019-02-14T04:01:43.633Z,23.00
2019-02-14T04:04:13.737Z,20.57
2019-02-14T04:06:43.829Z,20.70
2019-02-14T04:09:13.929Z,21.65
2019-02-14T04:11:44.021Z,19.32
2019-02-14T04:14:14.166Z,20.00
2019-02-14T04:16:45.189Z,20.60
2019-02-14T04:19:15.294Z,23.60
2019-02-14T04:21:45.421Z,19.87
2019-02-14T04:24:15.528Z,18.37
2019-02-14T04:26:45.621Z,22.90
2019-02-14T04:29:17.729Z,25.02
2019-02-14T04:31:47.833Z,17.67
2019-02-14T04:34:18.874Z,19.57
2019-02-14T04:36:48.965Z,18.05
2019-02-14T04:39:19.061Z,24.00
2019-02-14T04:41:50.221Z,22.73
2019-02-14T04:44:26.129Z,22.37
2019-02-14T04:46:56.233Z,23.42
2019-02-14T04:49:26.333Z,16.95
2019-02-14T04:51:56.425Z,22.35
2019-02-14T04:54:26.530Z,24.45
2019-02-14T04:56:58.553Z,23.98
2019-02-14T04:59:28.661Z,20.30
2019-02-14T05:01:58.753Z,19.17
2019-02-14T05:04:28.853Z,17.20
2019-02-14T05:07:01.479Z,19.27
2019-02-14T05:09:31.615Z,18.73
2019-02-14T05:12:01.701Z,21.37
2019-02-14T05:14:31.801Z,20.17
2019-02-14T05:17:01.929Z,22.10
2019-02-14T05:19:32.019Z,19.48
2019-02-14T05:22:03.105Z,26.87
2019-02-14T05:24:34.295Z,26.42
2019-02-14T05:27:10.209Z,17.65
2019-02-14T05:29:46.185Z,24.72
2019-02-14T05:32:16.286Z,23.77
2019-02-14T05:34:53.266Z,13.75
2019-02-14T05:37:26.357Z,18.77
2019-02-14T05:39:56.461Z,22.67
2019-02-14T05:42:26.566Z,19.73
2019-02-14T05:45:02.772Z,16.40
2019-02-14T05:47:32.873Z,21.20
2019-02-14T05:50:03.133Z,19.57
2019-02-14T05:52:33.293Z,16.35
2019-02-14T05:55:06.137Z,24.80
2019-02-14T05:57:37.331Z,22.98
2019-02-14T06:00:19.631Z,22.10
2019-02-14T06:03:01.903Z,21.35
2019-02-14T06:05:35.053Z,18.62
2019-02-14T06:08:05.146Z,18.37
2019-02-14T06:10:36.181Z,16.62
2019-02-14T06:13:07.262Z,19.95
2019-02-14T06:15:37.346Z,21.23
2019-02-14T06:18:07.465Z,21.65
2019-02-14T06:20:37.553Z,19.17
2019-02-14T06:23:08.618Z,22.45
2019-02-14T06:25:38.720Z,26.50
2019-02-14T06:28:08.854Z,33.23
2019-02-14T06:30:38.953Z,22.90
2019-02-14T06:33:17.897Z,21.48
2019-02-14T06:35:48.005Z,17.42
2019-02-14T06:38:18.093Z,20.02
2019-02-14T06:40:49.165Z,24.00
2019-02-14T06:43:19.357Z,21.27
2019-02-14T06:45:51.373Z,21.90
2019-02-14T06:48:21.486Z,18.45
2019-02-14T06:50:51.621Z,22.93
2019-02-14T06:53:21.949Z,24.12
2019-02-14T06:55:52.038Z,19.67
2019-02-14T06:58:22.131Z,17.42
2019-02-14T07:00:52.249Z,19.12
2019-02-14T07:03:25.358Z,22.05
2019-02-14T07:05:56.396Z,22.10
2019-02-14T07:08:26.481Z,22.87
2019-02-14T07:11:08.829Z,21.17
2019-02-14T07:13:38.931Z,25.62
2019-02-14T07:16:09.705Z,30.40
2019-02-14T07:18:39.810Z,24.35
2019-02-14T07:21:10.853Z,26.27
2019-02-14T07:23:40.960Z,23.30
2019-02-14T07:26:11.045Z,22.45
2019-02-14T07:28:41.134Z,23.85
2019-02-14T07:31:11.233Z,20.15
2019-02-14T07:33:41.326Z,26.77
2019-02-14T07:36:11.421Z,22.60
2019-02-14T07:38:41.505Z,15.90
2019-02-14T07:41:11.590Z,22.17
2019-02-14T07:43:41.678Z,22.10
2019-02-14T07:46:11.874Z,19.10
2019-02-14T07:48:43.451Z,26.77
2019-02-14T07:51:14.402Z,23.07
2019-02-14T07:53:45.207Z,21.07
2019-02-14T07:56:15.302Z,20.25
2019-02-14T07:58:45.412Z,21.70
2019-02-14T08:01:15.497Z,19.55
2019-02-14T08:03:45.602Z,24.25
2019-02-14T08:06:15.731Z,21.77
2019-02-14T08:08:45.816Z,16.87
2019-02-14T08:11:15.973Z,19.32
2019-02-14T08:13:46.057Z,24.72
2019-02-14T08:16:25.037Z,18.10
2019-02-14T08:19:00.096Z,18.90
2019-02-14T08:21:31.127Z,20.12
2019-02-14T08:24:02.101Z,19.90
2019-02-14T08:26:32.182Z,18.30
2019-02-14T08:29:02.269Z,21.97
2019-02-14T08:31:32.373Z,20.27
2019-02-14T08:34:02.462Z,23.15
2019-02-14T08:36:32.551Z,26.75
2019-02-14T08:39:02.629Z,24.02
2019-02-14T08:41:32.745Z,23.50
2019-02-14T08:44:02.852Z,21.40
2019-02-14T08:46:32.915Z,18.77
2019-02-14T08:49:15.814Z,20.08
2019-02-14T08:51:49.337Z,22.52
2019-02-14T08:54:19.447Z,20.80
2019-02-14T08:57:08.871Z,17.80
2019-02-14T08:59:38.964Z,20.20
2019-02-14T09:02:10.582Z,17.30
2019-02-14T09:04:46.529Z,18.45
2019-02-14T09:07:16.856Z,19.40
2019-02-14T09:09:53.830Z,18.30
2019-02-14T09:12:23.918Z,20.97
2019-02-14T09:14:55.997Z,20.35
2019-02-14T09:17:27.050Z,18.92
2019-02-14T09:20:08.570Z,22.00
2019-02-14T09:22:42.761Z,18.27
2019-02-14T09:25:26.774Z,16.02
2019-02-14T09:28:04.821Z,17.70
2019-02-14T09:30:34.919Z,17.45
2019-02-14T09:33:05.043Z,15.03
2019-02-14T09:35:37.111Z,20.00
2019-02-14T09:38:07.194Z,20.97
2019-02-14T09:40:37.286Z,17.27
2019-02-14T09:43:07.385Z,18.32
2019-02-14T09:45:37.475Z,15.80
2019-02-14T09:48:07.591Z,15.70
2019-02-14T09:50:38.641Z,15.05
2019-02-14T09:53:08.727Z,17.07
2019-02-14T09:55:39.804Z,15.80
2019-02-14T09:58:09.899Z,21.50
2019-02-14T10:00:40.004Z,18.37
2019-02-14T10:03:10.092Z,18.30
2019-02-14T10:05:41.093Z,17.37
2019-02-14T10:08:13.088Z,17.67
2019-02-14T10:10:45.303Z,14.47
2019-02-14T10:13:16.510Z,18.32
2019-02-14T10:15:47.598Z,15.70
2019-02-14T10:18:19.665Z,18.32
2019-02-14T10:20:50.714Z,18.77
2019-02-14T10:23:21.754Z,14.63
2019-02-14T10:25:52.782Z,17.62
2019-02-14T10:28:22.910Z,15.70
2019-02-14T10:30:53.949Z,13.50
2019-02-14T10:33:24.940Z,14.63
2019-02-14T10:36:09.554Z,14.53
2019-02-14T10:38:41.619Z,14.93
2019-02-14T10:41:11.689Z,12.00
2019-02-14T10:43:48.672Z,14.20
2019-02-14T10:46:14.526Z,12.40
2019-02-14T10:48:45.575Z,13.77
2019-02-14T10:51:15.662Z,17.77
2019-02-14T10:53:46.741Z,12.73
2019-02-14T10:56:16.899Z,14.60
2019-02-14T10:58:46.990Z,14.10
2019-02-14T11:01:19.046Z,15.67
2019-02-14T11:03:50.062Z,15.50
2019-02-14T11:06:21.199Z,14.87
2019-02-14T11:08:51.290Z,16.73
2019-02-14T11:11:25.442Z,17.20
2019-02-14T11:13:55.576Z,17.00
2019-02-14T11:16:29.822Z,14.10
2019-02-14T11:18:59.826Z,13.23
2019-02-14T11:21:29.918Z,16.87
2019-02-14T11:24:03.835Z,10.23
2019-02-14T11:26:33.932Z,17.97
2019-02-14T11:29:07.020Z,13.60
2019-02-14T11:31:42.774Z,10.50
2019-02-14T11:34:12.870Z,11.90
2019-02-14T11:36:43.950Z,10.50
2019-02-14T11:39:20.707Z,10.83
2019-02-14T11:41:50.772Z,11.73
2019-02-14T11:44:21.118Z,10.50
2019-02-14T11:46:53.110Z,13.23
2019-02-14T11:49:23.192Z,10.50
2019-02-14T11:51:53.368Z,10.97
2019-02-14T11:54:23.467Z,9.80
2019-02-14T11:56:53.555Z,9.60
2019-02-14T11:59:24.630Z,12.90
2019-02-14T12:01:55.748Z,10.70
2019-02-14T12:04:25.790Z,13.07
2019-02-14T12:06:55.874Z,10.87
2019-02-14T12:09:25.970Z,12.93
2019-02-14T12:11:56.058Z,6.47
2019-02-14T12:14:27.190Z,9.40
2019-02-14T12:16:57.274Z,8.50
2019-02-14T12:19:27.350Z,9.10
2019-02-14T12:21:59.418Z,7.97
2019-02-14T12:24:29.468Z,7.73
2019-02-14T12:26:59.558Z,10.93
2019-02-14T12:29:29.674Z,9.20
2019-02-14T12:31:59.752Z,8.47
2019-02-14T12:34:29.830Z,9.53
2019-02-14T12:37:04.006Z,6.73
2019-02-14T12:39:34.039Z,11.17
2019-02-14T12:42:04.183Z,8.93
2019-02-14T12:44:34.231Z,10.03
2019-02-14T12:47:04.342Z,10.80
2019-02-14T12:49:35.398Z,10.77
2019-02-14T12:52:14.655Z,10.37
2019-02-14T12:54:46.638Z,11.93
2019-02-14T12:57:16.714Z,8.93
2019-02-14T12:59:53.078Z,11.03
2019-02-14T13:02:23.168Z,8.47
2019-02-14T13:04:53.252Z,8.33
2019-02-14T13:07:24.223Z,9.97
2019-02-14T13:09:55.190Z,18.93
2019-02-14T13:12:27.166Z,8.37
2019-02-14T13:14:57.723Z,9.20
2019-02-14T13:17:27.834Z,9.00
2019-02-14T13:19:58.871Z,9.93
2019-02-14T13:22:28.963Z,7.60
2019-02-14T13:24:59.931Z,8.70
2019-02-14T13:27:30.946Z,8.17
2019-02-14T13:30:02.020Z,8.50
2019-02-14T13:32:34.040Z,10.90
2019-02-14T13:35:11.803Z,11.03
2019-02-14T13:37:43.212Z,9.70
2019-02-14T13:40:14.234Z,9.43
2019-02-14T13:42:44.345Z,17.13
2019-02-14T13:45:23.814Z,17.07
2019-02-14T13:47:53.994Z,8.90
2019-02-14T13:50:24.152Z,9.23
2019-02-14T13:52:54.234Z,8.37
2019-02-14T13:55:25.245Z,7.87
2019-02-14T13:58:04.264Z,8.60
2019-02-14T14:00:34.359Z,7.70
2019-02-14T14:03:04.460Z,7.33
2019-02-14T14:05:35.455Z,7.70
2019-02-14T14:08:05.611Z,10.23
2019-02-14T14:10:35.684Z,6.87
2019-02-14T14:13:06.672Z,8.60
2019-02-14T14:15:36.773Z,7.50
2019-02-14T14:18:09.568Z,7.67
2019-02-14T14:20:42.577Z,9.10
2019-02-14T14:23:13.600Z,8.90
2019-02-14T14:25:51.960Z,7.70
2019-02-14T14:28:35.827Z,9.10
2019-02-14T14:31:11.811Z,7.10
2019-02-14T14:33:51.237Z,7.63
2019-02-14T14:36:22.236Z,7.03
2019-02-14T14:38:52.312Z,7.80
2019-02-14T14:41:23.371Z,8.33
2019-02-14T14:43:55.091Z,8.80
2019-02-14T14:46:27.775Z,9.37
2019-02-14T14:48:57.855Z,9.70
2019-02-14T14:51:30.040Z,9.23
2019-02-14T14:54:09.207Z,6.33
2019-02-14T14:56:44.212Z,8.17
2019-02-14T14:59:21.201Z,10.87
2019-02-14T15:02:05.248Z,8.83
2019-02-14T15:04:35.328Z,9.30
2019-02-14T15:07:06.395Z,7.37
2019-02-14T15:09:42.255Z,8.10
2019-02-14T15:12:13.291Z,9.10
2019-02-14T15:14:45.303Z,9.23
2019-02-14T15:17:17.335Z,8.03
2019-02-14T15:19:53.190Z,10.60
2019-02-14T15:22:23.279Z,9.10
2019-02-14T15:24:53.371Z,8.70
2019-02-14T15:27:25.387Z,12.80
2019-02-14T15:29:56.677Z,7.57
2019-02-14T15:32:28.723Z,10.27
2019-02-14T15:34:58.811Z,8.90
2019-02-14T15:37:38.878Z,9.20
2019-02-14T15:40:10.371Z,7.53
2019-02-14T15:42:41.364Z,8.77
2019-02-14T15:45:13.342Z,7.63
2019-02-14T15:47:49.167Z,7.67
2019-02-14T15:50:19.263Z,8.47
2019-02-14T15:52:52.278Z,7.77
2019-02-14T15:55:24.282Z,9.03
2019-02-14T15:57:59.327Z,11.17
2019-02-14T16:00:36.440Z,9.43
2019-02-14T16:03:09.540Z,8.10
2019-02-14T16:05:40.350Z,8.07
2019-02-14T16:08:11.463Z,9.60
2019-02-14T16:10:55.966Z,8.27
2019-02-14T16:13:26.194Z,10.50
2019-02-14T16:15:58.710Z,8.70
2019-02-14T16:18:28.067Z,8.90
2019-02-14T16:20:59.057Z,10.90
2019-02-14T16:23:30.119Z,7.40
2019-02-14T16:26:10.016Z,17.37
2019-02-14T16:28:41.004Z,9.83
2019-02-14T16:31:11.091Z,11.03
2019-02-14T16:33:42.941Z,10.90
2019-02-14T16:36:13.065Z,13.43
2019-02-14T16:38:43.176Z,9.60
2019-02-14T16:41:19.364Z,9.40
2019-02-14T16:43:50.382Z,12.45
2019-02-14T16:46:20.485Z,9.05
2019-02-14T16:48:53.476Z,11.95
2019-02-14T16:51:24.519Z,12.95
2019-02-14T16:53:56.462Z,12.93
2019-02-14T16:56:26.554Z,14.90
2019-02-14T16:58:58.635Z,20.75
2019-02-14T17:01:29.670Z,14.10
2019-02-14T17:04:11.089Z,14.33
2019-02-14T17:06:41.171Z,31.30
2019-02-14T17:09:17.241Z,12.15
2019-02-14T17:11:47.320Z,9.75
2019-02-14T17:14:19.341Z,8.75
2019-02-14T17:16:49.463Z,8.35
2019-02-14T17:19:20.465Z,8.40
2019-02-14T17:21:51.472Z,12.90
2019-02-14T17:24:30.556Z,18.37
2019-02-14T17:27:02.639Z,18.85
2019-02-14T17:29:33.384Z,20.17
2019-02-14T17:32:03.482Z,22.50
2019-02-14T17:34:46.720Z,20.08
2019-02-14T17:37:16.813Z,26.30
2019-02-14T17:39:54.763Z,24.82
2019-02-14T17:42:24.860Z,23.65
2019-02-14T17:44:54.992Z,21.60
2019-02-14T17:47:25.044Z,19.95
2019-02-14T17:49:59.075Z,22.55
2019-02-14T17:52:29.178Z,23.42
2019-02-14T17:55:01.252Z,21.12
2019-02-14T17:57:33.328Z,29.48
2019-02-14T18:00:16.636Z,19.12
2019-02-14T18:05:43.848Z,19.27
2019-02-14T18:11:06.364Z,24.77
2019-02-14T18:13:37.418Z,32.98
2019-02-14T18:16:07.780Z,26.57
2019-02-14T18:18:42.884Z,25.70
2019-02-14T18:21:14.964Z,32.25
2019-02-14T18:23:47.004Z,37.95
2019-02-14T18:26:24.120Z,27.52
2019-02-14T18:28:54.212Z,27.98
2019-02-14T18:31:24.299Z,30.08
2019-02-14T18:33:54.382Z,22.58
2019-02-14T18:36:24.460Z,24.18
2019-02-14T18:39:04.492Z,20.50
2019-02-14T18:41:34.584Z,21.95
2019-02-14T18:44:06.616Z,21.30
2019-02-14T18:46:46.840Z,21.40
2019-02-14T18:49:16.920Z,19.85
2019-02-14T18:51:47.052Z,14.45
2019-02-14T18:54:22.842Z,19.07
2019-02-14T18:56:52.949Z,17.73
2019-02-14T18:59:24.000Z,17.52
2019-02-14T19:01:59.056Z,21.23
2019-02-14T19:04:40.836Z,22.87
2019-02-14T19:07:12.900Z,29.32
2019-02-14T19:09:42.998Z,20.00
2019-02-14T19:12:14.068Z,17.48
2019-02-14T19:14:45.092Z,18.00
2019-02-14T19:17:15.270Z,18.23
2019-02-14T19:19:45.357Z,20.00
2019-02-14T19:22:15.608Z,22.85
2019-02-14T19:24:46.685Z,22.42
2019-02-14T19:27:16.861Z,28.00
2019-02-14T19:29:46.956Z,24.57
2019-02-14T19:32:17.046Z,17.60
2019-02-14T19:34:47.160Z,19.50
2019-02-14T19:37:18.228Z,18.07
2019-02-14T19:39:56.188Z,18.05
2019-02-14T19:42:29.783Z,21.40
2019-02-14T19:45:00.067Z,15.58
2019-02-14T19:47:31.553Z,15.72
2019-02-14T19:52:54.177Z,13.60
2019-02-14T19:55:25.184Z,21.95
2019-02-14T19:57:56.937Z,14.55
2019-02-14T20:00:34.972Z,18.12
2019-02-14T20:03:05.108Z,15.68
2019-02-14T20:05:37.173Z,21.50
2019-02-14T20:08:07.633Z,16.52
2019-02-14T20:10:51.959Z,15.43
2019-02-14T20:13:24.084Z,21.02
2019-02-14T20:16:07.533Z,17.45
2019-02-14T20:18:43.282Z,22.05
2019-02-14T20:21:21.401Z,19.85
2019-02-14T20:23:51.910Z,20.02
2019-02-14T20:26:23.985Z,22.75
2019-02-14T20:28:53.996Z,25.62
2019-02-14T20:31:25.013Z,18.27
2019-02-14T20:34:01.817Z,21.25
2019-02-14T20:36:31.908Z,20.12
2019-02-14T20:39:04.720Z,20.20
2019-02-14T20:41:45.078Z,20.20
2019-02-14T20:44:09.380Z,17.40
2019-02-14T20:46:46.242Z,20.77
2019-02-14T20:49:17.036Z,24.18
2019-02-14T20:51:50.694Z,22.22
2019-02-14T20:54:20.808Z,16.50
2019-02-14T20:56:50.896Z,19.90
2019-02-14T20:59:21.008Z,15.95
2019-02-14T21:01:51.133Z,22.58
2019-02-14T21:04:22.206Z,25.90
2019-02-14T21:06:54.244Z,13.20
2019-02-14T21:09:25.243Z,23.65
2019-02-14T21:11:57.268Z,21.42
2019-02-14T21:14:28.300Z,19.05
2019-02-14T21:16:59.320Z,19.37
2019-02-14T21:19:29.420Z,16.25
2019-02-14T21:22:02.833Z,20.72
2019-02-14T21:24:33.023Z,18.62
2019-02-14T21:27:03.619Z,16.90
2019-02-14T21:29:36.919Z,22.50
2019-02-14T21:32:10.072Z,17.37
2019-02-14T21:34:40.149Z,20.50
2019-02-14T21:37:13.980Z,24.05
2019-02-14T21:39:49.653Z,17.12
2019-02-14T21:42:22.346Z,15.20
2019-02-14T21:44:53.565Z,13.48
2019-02-14T21:47:23.937Z,19.57
2019-02-14T21:50:03.387Z,16.30
2019-02-14T21:52:40.661Z,14.80
2019-02-14T21:55:17.381Z,15.32
2019-02-14T21:57:47.511Z,15.68
2019-02-14T22:00:29.276Z,15.13
2019-02-14T22:02:59.372Z,14.45
2019-02-14T22:05:30.446Z,14.53
2019-02-14T22:08:01.501Z,19.25
2019-02-14T22:10:37.353Z,15.10
2019-02-14T22:13:07.113Z,15.43
2019-02-14T22:15:46.185Z,13.30
2019-02-14T22:18:16.282Z,17.82
2019-02-14T22:20:46.369Z,17.87
2019-02-14T22:23:19.497Z,18.50
2019-02-14T22:25:51.166Z,14.35
2019-02-14T22:28:21.253Z,22.00
2019-02-14T22:30:51.345Z,18.45
2019-02-14T22:33:22.481Z,17.67
2019-02-14T22:35:52.568Z,17.65
2019-02-14T22:38:22.710Z,19.85
2019-02-14T22:40:52.880Z,16.65
2019-02-14T22:43:25.557Z,18.90
2019-02-14T22:45:55.763Z,14.18
2019-02-14T22:48:25.901Z,19.80
2019-02-14T22:50:55.951Z,19.75
2019-02-14T22:53:26.046Z,28.87
2019-02-14T22:55:57.101Z,17.45
2019-02-14T22:58:29.113Z,19.55
2019-02-14T23:01:00.729Z,13.03
2019-02-14T23:03:32.809Z,16.82
2019-02-14T23:06:02.914Z,23.95
2019-02-14T23:08:38.741Z,17.55
2019-02-14T23:11:08.829Z,18.27
2019-02-14T23:13:38.940Z,15.65
2019-02-14T23:16:14.829Z,16.82
2019-02-14T23:18:44.968Z,17.95
2019-02-14T23:21:17.009Z,15.03
2019-02-14T23:23:47.101Z,16.35
2019-02-14T23:26:18.377Z,18.32
2019-02-14T23:28:48.628Z,17.48
2019-02-14T23:31:18.741Z,17.92
2019-02-14T23:33:48.833Z,21.93
2019-02-14T23:36:18.929Z,20.88
2019-02-14T23:38:50.001Z,15.40
2019-02-14T23:41:23.346Z,17.70
2019-02-14T23:43:54.464Z,19.55
2019-02-14T23:46:25.465Z,13.95
2019-02-14T23:48:55.568Z,19.70
2019-02-14T23:51:26.657Z,18.77
2019-02-14T23:53:56.761Z,22.55
2019-02-14T23:56:26.870Z,19.17
2019-02-14T23:58:58.892Z,20.90
